Time;durP1;ratioP1;P1;durP2;ratioP2;P2;SDS_P1;SDS_P2;PMS_P1;PMS_P2;Temp;Humidity;BMP_temperature;BMP_pressure;BME280_temperature;BME280_humidity;BME280_pressure;Samples;Min_cycle;Max_cycle;Signal;HPM_P1;HPM_P2
2023/05/13 08:35:15;;;;;;;;;10.75;10.25;;;;;20.52;45.36;101587.09;4999224;28;45297;-43
2023/05/13 08:37:40;;;;;;;;;10.00;10.00;;;;;20.53;45.71;101586.19;5009610;28;45316;-39
2023/05/13 08:40:07;;;;;;;;;9.25;9.25;;;;;20.52;45.46;101582.69;5010264;28;45246;-41
2023/05/13 08:42:32;;;;;;;;;8.75;6.00;;;;;20.53;45.40;101579.13;5007918;28;47129;-40
2023/05/13 08:45:02;;;;;;;;;12.00;9.50;;;;;20.53;45.58;101588.81;4998546;28;55165;-45
2023/05/13 08:47:40;;;;;;;;;15.00;12.25;;;;;20.54;45.45;101586.09;4997334;28;45378;-40
2023/05/13 08:50:06;;;;;;;;;11.50;10.25;;;;;20.54;45.41;101580.84;4998577;28;45389;-38
2023/05/13 08:52:32;;;;;;;;;8.00;8.00;;;;;20.57;45.53;101585.13;4998765;28;47017;-39
2023/05/13 08:54:59;;;;;;;;;11.00;11.00;;;;;20.59;45.65;101585.06;5000236;28;45354;-38
2023/05/13 08:57:25;;;;;;;;;11.00;9.50;;;;;20.59;45.37;101588.53;5004962;28;45193;-38
2023/05/13 08:59:50;;;;;;;;;9.50;9.50;;;;;20.59;45.65;101577.16;5015134;28;45226;-38
2023/05/13 09:02:15;;;;;;;;;15.00;11.00;;;;;20.59;45.31;101579.78;5000559;28;45689;-39
2023/05/13 09:04:43;;;;;;;;;12.00;11.00;;;;;20.60;45.51;101585.00;5002866;28;45312;-41
2023/05/13 09:07:10;;;;;;;;;13.00;11.25;;;;;20.60;45.26;101574.44;5003417;28;45375;-39
2023/05/13 09:09:35;;;;;;;;;12.75;12.00;;;;;20.62;45.23;101579.63;4998733;28;45336;-40
2023/05/13 09:12:00;;;;;;;;;12.50;12.00;;;;;20.61;45.22;101573.53;4996064;28;47042;-41
2023/05/13 09:14:31;;;;;;;;;10.33;10.33;;;;;20.63;45.38;101582.22;4996400;28;71083;-39
2023/05/13 09:16:56;;;;;;;;;12.25;10.25;;;;;20.63;45.15;101573.44;4997465;28;45317;-41
2023/05/13 09:19:23;;;;;;;;;13.75;12.00;;;;;20.63;45.18;101584.88;4997946;28;45619;-38
2023/05/13 09:21:49;;;;;;;;;12.00;12.00;;;;;20.64;45.52;101581.31;4997357;28;46434;-39
2023/05/13 09:24:20;;;;;;;;;13.25;13.00;;;;;20.65;45.39;101585.66;4997454;28;45427;-38
2023/05/13 09:26:46;;;;;;;;;17.25;11.25;;;;;20.67;45.47;101580.31;4997987;28;45324;-39
2023/05/13 09:29:28;;;;;;;;;15.75;12.50;;;;;20.68;44.97;101588.13;4998260;28;45289;-41
2023/05/13 09:31:59;;;;;;;;;14.00;13.00;;;;;20.70;45.49;101591.56;4997155;28;46954;-41
2023/05/13 09:34:32;;;;;;;;;10.50;10.00;;;;;20.72;44.95;101601.19;4998089;28;45356;-40
2023/05/13 09:37:02;;;;;;;;;13.50;13.25;;;;;20.72;44.94;101598.53;4999612;28;45495;-41
2023/05/13 09:39:30;;;;;;;;;12.25;9.75;;;;;20.72;45.21;101590.63;4998746;28;45150;-42
2023/05/13 09:41:55;;;;;;;;;16.50;11.75;;;;;20.73;45.14;101595.00;5003112;28;45444;-39
2023/05/13 09:44:21;;;;;;;;;11.75;10.75;;;;;20.72;44.99;101596.78;5003061;28;45584;-39
2023/05/13 09:46:46;;;;;;;;;11.00;11.00;;;;;20.70;45.57;101593.34;5001210;28;45329;-38
2023/05/13 09:49:14;;;;;;;;;11.00;9.75;;;;;20.71;45.62;101587.16;4997030;28;45508;-39
2023/05/13 09:51:42;;;;;;;;;15.75;14.25;;;;;20.73;45.36;101585.28;4996880;28;46065;-38
2023/05/13 09:54:07;;;;;;;;;15.25;13.00;;;;;20.76;45.46;101584.34;5026852;28;45400;-38
2023/05/13 09:56:34;;;;;;;;;13.00;12.00;;;;;20.76;45.14;101579.94;5014707;28;46201;-41
2023/05/13 09:59:03;;;;;;;;;11.75;11.00;;;;;20.76;45.28;101584.34;4999400;28;45572;-39
2023/05/13 10:01:29;;;;;;;;;15.50;14.25;;;;;20.78;45.24;101587.78;4995540;28;46735;-41
2023/05/13 10:03:55;;;;;;;;;14.75;13.75;;;;;20.77;44.98;101584.28;4996845;28;45518;-40
2023/05/13 10:06:27;;;;;;;;;12.25;12.00;;;;;20.80;45.33;101588.53;4996958;28;45415;-40
2023/05/13 10:08:55;;;;;;;;;14.00;12.75;;;;;20.80;44.96;101581.50;4997293;28;45548;-42
2023/05/13 10:11:22;;;;;;;;;9.25;8.50;;;;;20.82;45.32;101584.06;4996695;28;46627;-39
2023/05/13 10:14:08;;;;;;;;;12.25;10.75;;;;;20.82;44.67;101579.66;4997773;28;45710;-40
2023/05/13 10:16:34;;;;;;;;;12.00;11.25;;;;;20.84;44.90;101576.97;5003400;28;45356;-39
2023/05/13 10:19:01;;;;;;;;;13.00;12.25;;;;;20.86;44.73;101580.38;5004387;28;45584;-40
2023/05/13 10:21:27;;;;;;;;;13.75;13.75;;;;;20.88;45.07;101581.19;5004325;28;45464;-41
2023/05/13 10:23:52;;;;;;;;;15.75;15.00;;;;;20.89;44.67;101569.69;4998159;28;45901;-40
2023/05/13 10:26:20;;;;;;;;;16.00;12.75;;;;;20.91;44.85;101573.09;5011448;28;45357;-42
2023/05/13 10:28:47;;;;;;;;;16.75;14.75;;;;;20.91;45.15;101581.00;4996560;28;45261;-39
2023/05/13 10:31:12;;;;;;;;;17.25;13.75;;;;;20.94;44.92;101580.03;4995854;28;46682;-39
2023/05/13 10:33:39;;;;;;;;;14.50;14.00;;;;;20.93;44.89;101571.25;4996215;28;45408;-40
2023/05/13 10:36:20;;;;;;;;;15.75;12.50;;;;;20.94;44.86;101575.63;4996249;28;45325;-41
2023/05/13 10:39:23;;;;;;;;;10.00;10.00;;;;;20.96;45.08;101576.41;4996739;28;45460;-40
2023/05/13 10:42:10;;;;;;;;;14.00;13.00;;;;;20.96;44.88;101570.25;4996600;28;45559;-42
2023/05/13 10:44:35;;;;;;;;;16.25;13.75;;;;;20.96;45.29;101563.22;4996206;28;45252;-42
2023/05/13 10:47:02;;;;;;;;;14.75;13.50;;;;;20.97;44.96;101562.31;4996162;28;45363;-42
2023/05/13 10:49:34;;;;;;;;;17.00;13.50;;;;;20.97;44.87;101559.66;4996407;28;45714;-39
2023/05/13 10:52:07;;;;;;;;;15.50;13.25;;;;;20.98;44.64;101553.47;4995958;28;47145;-42
2023/05/13 10:54:39;;;;;;;;;21.50;15.50;;;;;20.99;45.12;101555.19;4996299;28;45281;-40
2023/05/13 10:57:05;;;;;;;;;16.75;15.00;;;;;20.98;44.79;101552.59;5002079;28;45340;-40
2023/05/13 10:59:32;;;;;;;;;20.75;16.00;;;;;20.99;44.86;101554.31;5003225;28;45309;-40
2023/05/13 11:02:00;;;;;;;;;18.25;15.75;;;;;20.99;44.81;101554.31;4997782;28;47432;-39
2023/05/13 11:04:25;;;;;;;;;16.25;15.50;;;;;20.98;45.02;101553.47;4996444;28;45320;-41
2023/05/13 11:06:51;;;;;;;;;15.67;14.67;;;;;20.98;44.78;101553.47;4995774;28;48089;-39
2023/05/13 11:09:19;;;;;;;;;11.25;10.75;;;;;20.99;44.91;101549.06;4996109;28;45423;-39
2023/05/13 11:12:02;;;;;;;;;12.50;12.50;;;;;20.99;44.88;101544.66;4996816;28;46693;-38
2023/05/13 11:14:29;;;;;;;;;14.25;13.75;;;;;21.00;44.71;101548.97;4999521;28;45187;-38
2023/05/13 11:17:01;;;;;;;;;11.50;10.50;;;;;21.02;44.80;101543.66;4998359;28;45406;-39
2023/05/13 11:19:33;;;;;;;;;16.25;15.75;;;;;21.01;45.01;101547.19;4999655;28;45630;-39
2023/05/13 11:22:28;;;;;;;;;19.25;16.75;;;;;21.01;44.93;101540.13;5002999;28;46538;-39
2023/05/13 11:25:05;;;;;;;;;20.75;17.75;;;;;21.01;45.07;101537.50;5007763;28;45129;-40
2023/05/13 11:27:39;;;;;;;;;16.25;15.25;;;;;21.03;44.95;101533.94;5019753;28;45251;-39
2023/05/13 11:30:21;;;;;;;;;17.75;17.25;;;;;21.02;44.85;101535.75;5005697;28;45443;-41
2023/05/13 11:32:50;;;;;;;;;16.25;15.25;;;;;21.04;44.79;101533.03;4998985;28;47511;-43
2023/05/13 11:35:33;;;;;;;;;17.00;16.25;;;;;21.03;44.90;101528.69;4999467;28;45362;-39
2023/05/13 11:38:00;;;;;;;;;18.50;15.25;;;;;21.03;44.83;101523.41;5006646;28;45277;-39
2023/05/13 11:40:31;;;;;;;;;15.25;14.50;;;;;21.02;44.73;101530.47;5003781;28;45410;-40
2023/05/13 11:42:57;;;;;;;;;16.75;12.25;;;;;21.03;44.99;101524.28;4999983;28;45342;-38
2023/05/13 11:45:23;;;;;;;;;19.00;17.75;;;;;21.03;44.96;101521.63;4998614;28;45439;-41
2023/05/13 11:47:49;;;;;;;;;13.50;12.00;;;;;21.05;44.64;101521.56;4997617;28;45439;-39
2023/05/13 11:50:20;;;;;;;;;15.75;14.25;;;;;21.05;44.70;101508.38;4998951;28;45315;-38
2023/05/13 11:52:54;;;;;;;;;15.00;15.00;;;;;21.03;44.95;101503.19;4998210;28;47372;-38
2023/05/13 11:55:27;;;;;;;;;14.00;14.00;;;;;21.03;44.83;101499.69;4998574;28;45739;-39
2023/05/13 11:57:53;;;;;;;;;17.50;14.75;;;;;21.04;44.90;101496.13;4999118;28;45388;-39
2023/05/13 12:00:27;;;;;;;;;12.00;12.00;;;;;21.04;45.11;101498.75;5016969;28;44937;-41
2023/05/13 12:02:53;;;;;;;;;21.00;15.75;;;;;21.06;45.01;101491.63;5006223;28;46469;-41
2023/05/13 12:05:19;;;;;;;;;16.25;15.25;;;;;21.04;45.09;101485.59;4998334;28;45807;-46
2023/05/13 12:07:44;;;;;;;;;17.00;14.50;;;;;21.05;44.76;101482.03;4998269;28;48993;-42
2023/05/13 12:10:10;;;;;;;;;17.25;16.50;;;;;21.04;45.24;101477.69;4998325;28;45194;-41
2023/05/13 12:12:40;;;;;;;;;16.75;16.25;;;;;21.06;45.09;101476.66;5001135;28;47266;-42
2023/05/13 12:15:09;;;;;;;;;19.00;17.50;;;;;21.06;45.22;101475.81;5004929;28;45382;-39
2023/05/13 12:17:34;;;;;;;;;17.25;16.25;;;;;21.05;44.90;101469.72;5006528;28;45392;-39
2023/05/13 12:20:11;;;;;;;;;17.75;16.25;;;;;21.06;44.92;101471.41;5000469;28;45570;-39
2023/05/13 12:22:51;;;;;;;;;19.75;15.50;;;;;21.05;45.14;101464.44;4997442;28;46831;-39
2023/05/13 12:25:35;;;;;;;;;18.50;16.75;;;;;21.07;44.96;101456.44;4996701;28;45375;-39
2023/05/13 12:28:20;;;;;;;;;17.25;14.50;;;;;21.07;44.95;101461.72;4998456;28;45367;-39
2023/05/13 12:30:53;;;;;;;;;15.25;13.50;;;;;21.07;44.82;101453.81;4998251;28;45591;-39
2023/05/13 12:33:23;;;;;;;;;16.75;16.75;;;;;21.07;44.99;101451.19;4997652;28;46260;-39
2023/05/13 12:35:53;;;;;;;;;22.00;18.00;;;;;21.04;44.83;101443.41;4997730;28;45249;-39
2023/05/13 12:38:23;;;;;;;;;16.00;14.00;;;;;21.06;44.69;101441.56;4997981;28;45320;-40
2023/05/13 12:40:49;;;;;;;;;20.00;17.25;;;;;21.05;45.14;101443.38;4998079;28;45330;-39
2023/05/13 12:43:17;;;;;;;;;21.50;18.50;;;;;21.05;45.19;101447.75;4997662;28;46489;-39
2023/05/13 12:45:44;;;;;;;;;19.00;14.75;;;;;21.04;45.01;101446.06;4997707;28;45415;-39
2023/05/13 12:48:10;;;;;;;;;17.50;17.25;;;;;21.03;45.04;101439.94;4997914;28;45320;-39
2023/05/13 12:50:36;;;;;;;;;17.75;15.25;;;;;21.03;45.15;101433.78;5003519;28;45269;-40
2023/05/13 12:53:02;;;;;;;;;18.75;16.75;;;;;21.04;44.54;101427.59;4999676;28;46903;-41
2023/05/13 12:55:27;;;;;;;;;12.25;11.25;;;;;21.03;44.98;101434.66;5004336;28;45330;-39
2023/05/13 12:57:55;;;;;;;;;19.00;15.50;;;;;21.05;44.91;101437.22;5004306;28;45368;-39
2023/05/13 13:00:20;;;;;;;;;18.00;15.75;;;;;21.05;45.18;101429.31;4998462;28;45492;-39
2023/05/13 13:02:46;;;;;;;;;20.00;17.00;;;;;21.05;45.02;101427.53;4997592;28;46118;-40
2023/05/13 13:05:11;;;;;;;;;19.33;18.33;;;;;21.04;45.09;101419.69;4996922;28;65208;-39
2023/05/13 13:07:37;;;;;;;;;18.25;16.25;;;;;21.03;45.10;101412.72;4999922;28;45269;-40
2023/05/13 13:10:04;;;;;;;;;17.25;16.75;;;;;21.06;45.10;101423.13;4997918;28;45534;-39
2023/05/13 13:12:29;;;;;;;;;17.50;16.75;;;;;21.05;45.15;101427.53;4999581;28;46746;-40
2023/05/13 13:14:55;;;;;;;;;20.25;15.75;;;;;21.05;44.92;101421.41;4999897;28;45332;-39
2023/05/13 13:17:20;;;;;;;;;17.75;15.50;;;;;21.06;44.95;101410.78;4997528;28;45319;-41
2023/05/13 13:19:46;;;;;;;;;20.50;17.75;;;;;21.06;45.08;101407.31;4997787;28;46028;-39
2023/05/13 13:22:11;;;;;;;;;19.50;17.75;;;;;21.05;44.75;101408.22;4997053;28;47275;-39
2023/05/13 13:24:37;;;;;;;;;19.25;16.50;;;;;21.04;45.28;101411.78;5002786;28;45382;-39
2023/05/13 13:27:02;;;;;;;;;15.67;14.00;;;;;21.04;44.78;101395.97;5002923;28;59735;-39
2023/05/13 13:29:27;;;;;;;;;18.50;14.00;;;;;21.05;44.75;101403.84;5003595;28;45611;-39
2023/05/13 13:31:53;;;;;;;;;19.00;18.00;;;;;21.06;45.16;101402.03;5003384;28;65049;-40
2023/05/13 13:34:18;;;;;;;;;17.50;15.75;;;;;21.06;44.82;101400.25;5010818;28;45285;-39
2023/05/13 13:36:43;;;;;;;;;20.25;17.50;;;;;21.05;45.08;101395.94;5010388;28;45260;-40
2023/05/13 13:39:09;;;;;;;;;19.25;17.00;;;;;21.06;44.96;101396.75;5003079;28;45322;-40
2023/05/13 13:41:34;;;;;;;;;14.50;14.50;;;;;21.06;44.94;101386.22;5002796;28;47385;-41
2023/05/13 13:43:59;;;;;;;;;18.50;15.50;;;;;21.07;44.89;101385.28;5002271;28;45281;-42
2023/05/13 13:46:25;;;;;;;;;17.00;16.33;;;;;21.06;44.71;101387.06;4999811;28;50118;-40
2023/05/13 13:48:50;;;;;;;;;17.25;16.50;;;;;21.06;44.96;101392.34;5001738;28;46930;-41
2023/05/13 13:51:16;;;;;;;;;15.00;13.00;;;;;21.04;44.96;101382.81;5015814;28;45441;-39
2023/05/13 13:53:41;;;;;;;;;20.50;18.00;;;;;21.06;44.80;101380.94;5009261;28;59586;-40
2023/05/13 13:56:06;;;;;;;;;15.25;14.50;;;;;21.06;45.15;101383.59;4997563;28;48971;-40
2023/05/13 13:58:32;;;;;;;;;20.50;16.75;;;;;21.05;44.74;101377.47;4997302;28;45490;-39
2023/05/13 14:00:57;;;;;;;;;16.00;14.75;;;;;21.03;44.90;101373.19;4996891;28;46372;-40
2023/05/13 14:03:22;;;;;;;;;20.50;16.25;;;;;21.05;44.75;101373.97;4996907;28;45420;-40
2023/05/13 14:05:48;;;;;;;;;18.50;16.00;;;;;21.05;45.25;101377.47;5006031;28;45278;-40
2023/05/13 14:08:14;;;;;;;;;18.75;17.50;;;;;21.05;44.95;101369.56;5010185;28;45320;-40
2023/05/13 14:10:39;;;;;;;;;15.00;15.00;;;;;21.05;45.08;101368.69;4996480;28;69234;-40
2023/05/13 14:13:05;;;;;;;;;15.50;15.50;;;;;21.05;45.01;101373.97;5004224;28;45371;-39
2023/05/13 14:15:30;;;;;;;;;17.75;16.00;;;;;21.05;44.82;101366.94;5019916;28;45376;-40
2023/05/13 14:17:56;;;;;;;;;17.50;16.25;;;;;21.02;45.18;101364.44;4997862;28;45398;-40
2023/05/13 14:20:22;;;;;;;;;17.25;15.25;;;;;21.05;45.30;101358.16;4996769;28;47185;-41
2023/05/13 14:22:47;;;;;;;;;15.00;15.00;;;;;21.04;44.75;101351.19;4996568;28;45435;-39
2023/05/13 14:25:13;;;;;;;;;15.50;14.00;;;;;21.04;45.06;101353.81;4998518;28;45258;-40
2023/05/13 14:27:38;;;;;;;;;17.25;16.50;;;;;21.05;44.79;101352.88;5006028;28;45462;-40
2023/05/13 14:30:05;;;;;;;;;15.25;15.25;;;;;21.03;45.02;101354.75;5004117;28;45577;-43
2023/05/13 14:32:30;;;;;;;;;16.25;15.00;;;;;21.04;44.92;101352.03;4996800;28;45199;-42
2023/05/13 14:34:56;;;;;;;;;14.00;12.25;;;;;21.05;44.74;101347.63;4996293;28;45411;-42
2023/05/13 14:37:21;;;;;;;;;17.00;15.67;;;;;21.05;45.03;101347.63;4995946;28;53749;-41
2023/05/13 14:39:46;;;;;;;;;18.25;15.00;;;;;21.03;44.95;101338.91;4996120;28;47122;-41
2023/05/13 14:42:11;;;;;;;;;15.67;15.67;;;;;21.03;44.90;101336.28;4995759;28;56413;-42
2023/05/13 14:44:37;;;;;;;;;18.25;14.50;;;;;21.03;45.23;101338.91;4996577;28;45244;-42
2023/05/13 14:47:02;;;;;;;;;16.50;14.75;;;;;21.02;44.86;101335.44;4997004;28;45345;-41
2023/05/13 14:49:28;;;;;;;;;18.50;16.00;;;;;21.03;44.86;101349.47;4998644;28;46148;-41
2023/05/13 14:51:54;;;;;;;;;15.25;14.25;;;;;21.01;45.33;101350.41;5005498;28;45273;-42
2023/05/13 14:54:19;;;;;;;;;16.00;15.00;;;;;20.99;44.86;101336.47;5007072;28;45379;-42
2023/05/13 14:56:44;;;;;;;;;18.67;16.00;;;;;20.99;45.10;101339.09;5002699;28;47307;-42
2023/05/13 14:59:10;;;;;;;;;16.50;14.50;;;;;20.99;44.87;101335.59;4999711;28;46226;-42
2023/05/13 15:01:35;;;;;;;;;19.00;15.00;;;;;20.98;45.14;101320.72;4999795;28;45349;-42
2023/05/13 15:04:00;;;;;;;;;16.67;13.00;;;;;20.98;44.93;101325.97;4999081;28;59091;-42
2023/05/13 15:06:26;;;;;;;;;13.75;13.50;;;;;20.99;45.19;101318.03;5000079;28;45515;-42
2023/05/13 15:08:51;;;;;;;;;16.50;13.75;;;;;20.99;44.93;101320.66;5002124;28;46527;-42
2023/05/13 15:11:16;;;;;;;;;18.75;17.25;;;;;20.98;44.96;101321.56;5008438;28;45297;-40
2023/05/13 15:13:42;;;;;;;;;13.00;13.00;;;;;20.98;44.81;101310.16;5010186;28;54678;-41
2023/05/13 15:16:07;;;;;;;;;17.67;16.00;;;;;20.97;45.16;101317.22;5013018;28;45734;-40
2023/05/13 15:18:32;;;;;;;;;15.50;13.75;;;;;20.98;44.96;101324.22;5010205;28;47304;-40
2023/05/13 15:20:58;;;;;;;;;15.00;14.00;;;;;20.98;44.78;101316.31;5010468;28;45218;-40
2023/05/13 15:23:23;;;;;;;;;16.33;15.00;;;;;20.98;45.07;101325.97;5011629;28;62760;-40
2023/05/13 15:25:49;;;;;;;;;17.67;13.00;;;;;20.98;44.77;101321.56;5012559;28;56890;-38
2023/05/13 15:28:14;;;;;;;;;16.75;16.25;;;;;20.98;44.69;101315.44;5011070;28;45441;-38
2023/05/13 15:30:41;;;;;;;;;19.00;17.33;;;;;20.96;45.04;101315.53;5014131;28;59785;-38
2023/05/13 15:33:06;;;;;;;;;15.00;13.50;;;;;20.97;44.95;101319.00;5009724;28;45269;-42
2023/05/13 15:35:32;;;;;;;;;13.50;13.50;;;;;20.95;44.82;101316.44;5001672;28;45561;-39
2023/05/13 15:37:58;;;;;;;;;15.75;14.00;;;;;20.95;45.04;101329.63;4999683;28;45374;-39
2023/05/13 15:40:24;;;;;;;;;13.75;11.75;;;;;20.90;44.97;101315.81;4998901;28;45333;-39
2023/05/13 15:42:50;;;;;;;;;15.25;14.00;;;;;20.94;45.13;101319.16;4999157;28;45851;-38
2023/05/13 15:45:15;;;;;;;;;16.25;13.25;;;;;20.93;44.87;101317.47;4999452;28;45479;-38
2023/05/13 15:47:40;;;;;;;;;19.75;15.50;;;;;20.91;44.98;101304.34;4999137;28;46458;-39
2023/05/13 15:50:06;;;;;;;;;16.75;13.25;;;;;20.93;44.99;101318.31;4998671;28;45360;-38
2023/05/13 15:52:31;;;;;;;;;15.25;14.25;;;;;20.94;44.97;101313.91;4998503;28;45272;-39
2023/05/13 15:54:57;;;;;;;;;18.00;13.50;;;;;20.93;44.84;101315.66;4999085;28;45253;-40
2023/05/13 15:57:22;;;;;;;;;16.50;15.00;;;;;20.92;44.64;101321.88;4997888;28;46860;-38
2023/05/13 15:59:48;;;;;;;;;14.25;12.50;;;;;20.92;44.89;101321.88;4997910;28;45330;-38
2023/05/13 16:02:13;;;;;;;;;14.00;13.00;;;;;20.91;45.04;101324.59;4998665;28;50954;-38
2023/05/13 16:04:38;;;;;;;;;17.25;13.00;;;;;20.92;44.87;101327.13;5000796;28;45237;-38
2023/05/13 16:07:09;;;;;;;;;14.75;12.25;;;;;20.91;44.97;101333.34;5004632;28;45237;-39
2023/05/13 16:09:35;;;;;;;;;16.25;12.75;;;;;20.91;45.04;101329.84;5004440;28;45249;-39
2023/05/13 16:12:00;;;;;;;;;13.00;12.75;;;;;20.93;44.71;101343.81;5006198;28;45337;-39
2023/05/13 16:14:25;;;;;;;;;13.00;12.25;;;;;20.90;45.07;101342.16;5015406;28;45304;-38
2023/05/13 16:16:51;;;;;;;;;15.25;13.25;;;;;20.92;44.99;101353.47;5016729;28;66661;-38
2023/05/13 16:19:16;;;;;;;;;12.00;11.75;;;;;20.91;44.97;101351.78;5024437;28;55023;-39
2023/05/13 16:21:41;;;;;;;;;13.50;12.25;;;;;20.91;45.13;101346.50;5004153;28;45264;-39
2023/05/13 16:24:07;;;;;;;;;13.33;11.67;;;;;20.92;45.02;101344.75;4998907;28;51462;-38
2023/05/13 16:26:32;;;;;;;;;12.00;11.25;;;;;20.93;44.95;101359.63;4996727;28;48451;-38
2023/05/13 16:28:57;;;;;;;;;12.75;11.50;;;;;20.91;44.83;101356.22;4997872;28;56385;-38
2023/05/13 16:31:22;;;;;;;;;11.33;10.33;;;;;20.93;45.10;101365.72;4998019;28;57391;-38
2023/05/13 16:33:48;;;;;;;;;14.00;12.00;;;;;20.92;44.96;101381.63;4997933;28;47131;-40
2023/05/13 16:36:13;;;;;;;;;13.25;12.00;;;;;20.93;44.95;101433.41;4998223;28;45265;-43
2023/05/13 16:38:40;;;;;;;;;13.25;12.00;;;;;20.91;44.92;101422.91;4997999;28;45269;-38
2023/05/13 16:41:06;;;;;;;;;13.50;10.50;;;;;20.92;44.90;101419.34;4998096;28;45254;-42
2023/05/13 16:43:31;;;;;;;;;12.75;12.25;;;;;20.92;44.94;101408.81;4998194;28;45626;-41
2023/05/13 16:45:56;;;;;;;;;14.33;12.00;;;;;20.91;44.80;101415.00;4998407;28;62778;-40
2023/05/13 16:48:21;;;;;;;;;17.00;13.33;;;;;20.90;44.57;101431.75;5005182;28;61592;-38
2023/05/13 16:50:47;;;;;;;;;14.50;13.00;;;;;20.89;44.92;101432.66;5005976;28;45325;-39
2023/05/13 16:53:12;;;;;;;;;17.25;14.00;;;;;20.91;44.58;101440.53;4997993;28;45309;-39
2023/05/13 16:55:38;;;;;;;;;10.50;10.50;;;;;20.89;44.47;101437.09;4997749;28;46322;-40
2023/05/13 16:58:03;;;;;;;;;13.75;12.25;;;;;20.88;44.58;101449.44;4998500;28;50654;-39
2023/05/13 17:00:29;;;;;;;;;11.00;11.00;;;;;20.89;44.44;101452.91;5004005;28;45511;-39
2023/05/13 17:02:54;;;;;;;;;8.50;8.50;;;;;20.88;44.38;101451.19;5004622;28;45371;-39
2023/05/13 17:05:19;;;;;;;;;13.33;12.00;;;;;20.86;44.62;101459.19;5002431;28;67610;-39
2023/05/13 17:07:44;;;;;;;;;10.67;10.33;;;;;20.86;44.55;101451.28;5003955;28;66818;-40
2023/05/13 17:10:10;;;;;;;;;13.00;13.00;;;;;20.86;44.73;101451.28;5001105;28;49677;-39
2023/05/13 17:12:35;;;;;;;;;8.00;7.00;;;;;20.85;44.41;101452.19;4999232;28;45436;-40
2023/05/13 17:15:00;;;;;;;;;13.00;13.00;;;;;20.84;44.61;101447.84;5000975;28;60224;-41
2023/05/13 17:17:26;;;;;;;;;13.25;11.00;;;;;20.85;44.55;101449.56;5000536;28;45331;-40
2023/05/13 17:19:51;;;;;;;;;14.67;13.33;;;;;20.83;44.60;101447.03;5007899;28;61692;-39
2023/05/13 17:22:16;;;;;;;;;13.25;11.00;;;;;20.83;44.40;101451.41;5007919;28;45448;-41
2023/05/13 17:24:41;;;;;;;;;10.67;10.67;;;;;20.83;44.51;101443.50;5007184;28;67980;-38
2023/05/13 17:27:07;;;;;;;;;11.00;11.00;;;;;20.83;44.42;101459.31;5006668;28;61762;-39
2023/05/13 17:29:32;;;;;;;;;11.75;9.75;;;;;20.83;44.56;101454.06;4999227;28;45377;-40
2023/05/13 17:31:58;;;;;;;;;10.25;10.25;;;;;20.82;44.81;101452.34;4997221;28;48559;-38
2023/05/13 17:34:23;;;;;;;;;14.50;12.50;;;;;20.82;44.41;101444.44;4996930;28;46166;-39
2023/05/13 17:36:48;;;;;;;;;15.25;12.25;;;;;20.82;44.58;101441.81;4997640;28;45242;-39
2023/05/13 17:39:13;;;;;;;;;11.50;11.50;;;;;20.81;44.53;101451.50;4997052;28;45264;-39
2023/05/13 17:41:39;;;;;;;;;11.25;11.00;;;;;20.82;44.51;101457.59;4997343;28;45605;-40
2023/05/13 17:44:04;;;;;;;;;9.25;8.75;;;;;20.81;44.35;101445.34;4996844;28;46060;-38
2023/05/13 17:46:29;;;;;;;;;12.00;10.25;;;;;20.80;44.23;101452.41;4996980;28;45241;-39
2023/05/13 17:48:55;;;;;;;;;9.33;9.00;;;;;20.78;44.31;101440.25;4996596;28;59354;-39
2023/05/13 17:51:20;;;;;;;;;11.50;11.50;;;;;20.80;44.51;101439.25;4997376;28;45466;-39
2023/05/13 17:53:46;;;;;;;;;13.25;12.25;;;;;20.80;44.25;101439.25;4996696;28;45596;-39
2023/05/13 17:56:11;;;;;;;;;9.50;9.50;;;;;20.80;44.31;101439.25;4997614;28;45324;-40
2023/05/13 17:58:36;;;;;;;;;10.25;10.25;;;;;20.81;44.44;101445.34;4998199;28;45437;-41
2023/05/13 18:01:02;;;;;;;;;9.50;8.25;;;;;20.79;44.35;101441.94;4998097;28;56118;-39
2023/05/13 18:03:27;;;;;;;;;12.00;12.00;;;;;20.80;44.29;101441.88;5004213;28;45702;-38
2023/05/13 18:05:53;;;;;;;;;10.50;10.25;;;;;20.80;44.52;101430.47;4999415;28;45372;-38
2023/05/13 18:08:19;;;;;;;;;11.75;9.50;;;;;20.79;44.04;101434.91;4997217;28;45331;-38
2023/05/13 18:10:45;;;;;;;;;11.50;10.00;;;;;20.80;44.36;101419.94;4997903;28;45643;-39
2023/05/13 18:13:10;;;;;;;;;10.00;10.00;;;;;20.79;44.38;101431.41;4998184;28;45413;-38
2023/05/13 18:15:36;;;;;;;;;10.00;10.00;;;;;20.78;44.43;101419.19;5005210;28;44883;-41
2023/05/13 18:18:02;;;;;;;;;9.75;9.75;;;;;20.79;43.95;101429.63;5013663;28;45292;-39
2023/05/13 18:20:29;;;;;;;;;9.75;9.75;;;;;20.78;44.44;101427.91;5005991;28;45325;-41
2023/05/13 18:22:54;;;;;;;;;11.25;8.75;;;;;20.77;44.50;101422.75;5012381;28;48333;-39
2023/05/13 18:25:19;;;;;;;;;11.00;10.00;;;;;20.78;44.38;101417.38;4996802;28;45240;-41
2023/05/13 18:27:45;;;;;;;;;9.50;9.50;;;;;20.77;44.37;101413.03;4996420;28;45460;-38
2023/05/13 18:30:10;;;;;;;;;10.75;10.75;;;;;20.77;44.47;101417.47;4996612;28;45622;-39
2023/05/13 18:32:37;;;;;;;;;9.00;9.00;;;;;20.77;44.26;101422.75;4995052;28;46082;-38
2023/05/13 18:35:02;;;;;;;;;11.00;11.00;;;;;20.76;44.13;101423.66;4996504;28;45773;-38
2023/05/13 18:37:27;;;;;;;;;10.75;10.75;;;;;20.75;44.46;101437.75;4999176;28;45348;-39
2023/05/13 18:39:53;;;;;;;;;8.50;8.50;;;;;20.76;44.47;101424.50;5001749;28;45567;-38
2023/05/13 18:42:18;;;;;;;;;11.50;10.00;;;;;20.76;44.46;101432.41;4998387;28;46404;-38
2023/05/13 18:44:43;;;;;;;;;10.00;10.00;;;;;20.75;44.27;101419.31;4996559;28;54195;-38
2023/05/13 18:47:09;;;;;;;;;10.25;8.75;;;;;20.74;44.36;101413.19;5001314;28;45299;-41
2023/05/13 18:49:35;;;;;;;;;10.00;10.00;;;;;20.74;44.21;101407.91;4996575;28;45376;-39
2023/05/13 18:52:00;;;;;;;;;9.75;9.75;;;;;20.74;44.56;101407.03;4996131;28;46016;-41
2023/05/13 18:54:27;;;;;;;;;13.75;10.00;;;;;20.72;44.26;101412.38;4996278;28;45897;-40
2023/05/13 18:56:53;;;;;;;;;11.25;10.00;;;;;20.73;44.66;101418.50;4995134;28;45510;-39
2023/05/13 18:59:18;;;;;;;;;9.50;9.50;;;;;20.72;44.80;101403.63;4996300;28;45179;-40
2023/05/13 19:01:44;;;;;;;;;10.25;10.25;;;;;20.72;44.44;101403.63;4995845;28;45544;-40
2023/05/13 19:04:11;;;;;;;;;11.00;9.00;;;;;20.71;44.33;101400.13;4995867;28;45420;-38
2023/05/13 19:06:36;;;;;;;;;10.75;9.75;;;;;20.72;44.60;101408.88;4996234;28;45277;-40
2023/05/13 19:09:02;;;;;;;;;9.50;8.75;;;;;20.72;44.17;101408.88;4996862;28;45229;-41
2023/05/13 19:11:27;;;;;;;;;10.00;10.00;;;;;20.71;44.79;101418.56;4996917;28;45465;-41
2023/05/13 19:13:53;;;;;;;;;9.75;9.00;;;;;20.71;44.30;101429.13;5000670;28;45355;-41
2023/05/13 19:16:18;;;;;;;;;9.75;9.75;;;;;20.72;44.20;101429.94;4999713;28;45362;-41
2023/05/13 19:18:44;;;;;;;;;11.25;10.00;;;;;20.72;44.43;101427.31;4999080;28;45365;-43
2023/05/13 19:21:09;;;;;;;;;10.50;9.00;;;;;20.71;44.71;101434.38;4998308;28;46960;-41
2023/05/13 19:23:36;;;;;;;;;9.50;9.25;;;;;20.70;44.38;101436.16;4996953;28;45543;-39
2023/05/13 19:26:02;;;;;;;;;8.25;7.50;;;;;20.72;44.49;101440.50;4995623;28;45594;-40
2023/05/13 19:28:27;;;;;;;;;8.25;7.50;;;;;20.70;44.14;101433.50;5011287;28;45339;-41
2023/05/13 19:30:52;;;;;;;;;12.25;10.50;;;;;20.69;44.55;101430.97;4995582;28;46975;-38
2023/05/13 19:33:18;;;;;;;;;9.25;8.75;;;;;20.70;44.43;101438.78;4997548;28;45738;-41
2023/05/13 19:35:43;;;;;;;;;12.75;12.75;;;;;20.70;44.27;101448.47;4998962;28;45357;-40
2023/05/13 19:38:09;;;;;;;;;12.75;10.75;;;;;20.70;44.56;101449.31;4999097;28;45526;-41
2023/05/13 19:40:34;;;;;;;;;7.50;7.50;;;;;20.69;44.43;101438.88;4998591;28;46101;-41
2023/05/13 19:43:00;;;;;;;;;13.50;11.50;;;;;20.69;44.27;101442.34;4998610;28;45440;-41
2023/05/13 19:45:25;;;;;;;;;8.00;8.00;;;;;20.69;44.18;101433.59;4998818;28;52785;-41